createdAt,value
2022-11-29T00:09:14.268Z,6.10
2022-11-29T00:19:17.784Z,6.65
2022-11-29T00:29:19.743Z,7.22
2022-11-29T00:39:23.009Z,11.23
2022-11-29T00:49:24.971Z,10.40
2022-11-29T00:59:28.272Z,14.15
2022-11-29T01:09:30.305Z,13.88
2022-11-29T01:19:33.648Z,15.57
2022-11-29T01:29:35.580Z,15.48
2022-11-29T01:39:39.200Z,16.02
2022-11-29T01:49:44.125Z,14.57
2022-11-29T01:59:50.482Z,16.42
2022-11-29T02:09:52.409Z,14.93
2022-11-29T02:20:21.768Z,15.00
2022-11-29T02:30:50.183Z,15.57
2022-11-29T02:41:10.788Z,16.08
2022-11-29T03:01:26.758Z,21.65
2022-11-29T03:11:36.255Z,19.65
2022-11-29T03:21:51.584Z,19.48
2022-11-29T03:32:00.391Z,20.33
2022-11-29T03:42:07.893Z,19.80
2022-11-29T03:52:15.801Z,19.38
2022-11-29T04:02:54.784Z,17.27
2022-11-29T04:13:26.214Z,14.27
2022-11-29T04:23:57.393Z,14.07
2022-11-29T04:34:34.674Z,13.77
2022-11-29T04:44:55.455Z,16.08
2022-11-29T04:55:04.519Z,18.45
2022-11-29T05:05:21.614Z,20.25
2022-11-29T05:15:46.666Z,19.08
2022-11-29T05:25:56.403Z,18.20
2022-11-29T05:36:10.652Z,17.53
2022-11-29T05:46:21.936Z,15.68
2022-11-29T05:56:34.059Z,17.08
2022-11-29T06:06:43.391Z,14.25
2022-11-29T06:17:17.915Z,13.40
2022-11-29T06:27:42.061Z,12.80
2022-11-29T06:37:48.112Z,11.20
2022-11-29T06:47:57.872Z,9.30
2022-11-29T06:58:10.207Z,11.30
2022-11-29T07:08:16.520Z,11.02
2022-11-29T07:18:31.174Z,11.50
2022-11-29T07:28:45.867Z,9.55
2022-11-29T07:50:14.421Z,10.93
2022-11-29T08:00:17.774Z,9.40
2022-11-29T08:10:21.335Z,11.60
2022-11-29T08:20:23.290Z,11.80
2022-11-29T08:30:26.597Z,11.43
2022-11-29T08:40:28.522Z,10.40
2022-11-29T08:50:31.820Z,10.02
2022-11-29T09:00:34.821Z,8.60
2022-11-29T09:10:39.830Z,6.57
2022-11-29T09:20:43.321Z,6.28
2022-11-29T09:30:46.671Z,7.57
2022-11-29T09:40:53.339Z,10.02
2022-11-29T09:51:07.302Z,10.23
2022-11-29T10:01:20.529Z,7.53
2022-11-29T10:11:29.448Z,7.97
2022-11-29T10:21:36.160Z,7.88
2022-11-29T10:31:41.555Z,9.40
2022-11-29T10:41:43.568Z,7.80
2022-11-29T10:51:47.295Z,7.72
2022-11-29T11:01:50.554Z,7.15
2022-11-29T11:11:56.423Z,9.55
2022-11-29T11:22:00.722Z,10.30
2022-11-29T11:32:05.177Z,9.25
2022-11-29T11:42:11.818Z,8.52
2022-11-29T11:52:21.597Z,9.05
2022-11-29T12:02:28.968Z,10.63
2022-11-29T12:12:35.959Z,11.02
2022-11-29T12:22:46.713Z,11.30
2022-11-29T12:33:05.970Z,10.68
2022-11-29T12:43:18.223Z,11.52
2022-11-29T12:53:38.822Z,8.77
2022-11-29T13:13:51.445Z,9.75
2022-11-29T13:24:08.390Z,9.82
2022-11-29T13:34:19.735Z,8.52
2022-11-29T13:44:30.320Z,9.57
2022-11-29T13:54:33.959Z,8.38
2022-11-29T14:04:37.722Z,8.50
2022-11-29T14:14:50.801Z,8.88
2022-11-29T14:25:01.284Z,8.70
2022-11-29T14:35:16.876Z,8.52
2022-11-29T14:45:24.127Z,10.27
2022-11-29T14:55:32.875Z,9.02
2022-11-29T15:05:37.979Z,8.88
2022-11-29T15:16:13.768Z,8.82
2022-11-29T15:26:18.003Z,7.28
2022-11-29T15:36:23.128Z,9.30
2022-11-29T15:46:26.720Z,10.50
2022-11-29T15:56:37.275Z,10.30
2022-11-29T16:07:19.648Z,10.68
2022-11-29T16:17:25.867Z,9.50
2022-11-29T16:27:31.799Z,10.48
2022-11-29T16:37:39.500Z,12.15
2022-11-29T16:47:48.631Z,18.85
2022-11-29T16:57:51.943Z,13.65
2022-11-29T17:07:54.486Z,16.70
2022-11-29T17:17:57.895Z,16.90
2022-11-29T17:27:59.796Z,16.92
2022-11-29T17:38:03.126Z,14.80
2022-11-29T17:48:05.287Z,21.85
2022-11-29T17:58:46.858Z,21.35
2022-11-29T18:20:07.942Z,18.23
2022-11-29T18:30:10.730Z,19.00
2022-11-29T18:40:14.843Z,21.02
2022-11-29T18:50:17.150Z,21.13
2022-11-29T19:00:21.182Z,22.00
2022-11-29T19:10:23.103Z,25.67
2022-11-29T19:30:55.450Z,22.83
2022-11-29T19:40:57.398Z,20.52
2022-11-29T19:51:01.357Z,23.52
2022-11-29T20:01:07.763Z,22.08
2022-11-29T20:11:14.167Z,29.13
2022-11-29T20:21:18.770Z,25.90
2022-11-29T20:31:22.934Z,28.05
2022-11-29T20:41:31.740Z,27.55
2022-11-29T20:51:40.523Z,28.23
2022-11-29T21:01:42.454Z,26.08
2022-11-29T21:11:46.348Z,27.08
2022-11-29T21:22:01.060Z,28.25
2022-11-29T21:32:05.041Z,27.95
2022-11-29T21:42:07.052Z,27.85
2022-11-29T21:52:10.581Z,26.10
2022-11-29T22:02:12.624Z,25.38
2022-11-29T22:12:32.970Z,26.10
2022-11-29T22:22:36.436Z,25.90
2022-11-29T22:32:39.768Z,27.38
2022-11-29T22:42:41.685Z,27.58
2022-11-29T22:52:45.016Z,24.25
2022-11-29T23:02:46.928Z,26.30
2022-11-29T23:12:50.243Z,28.65
2022-11-29T23:22:52.174Z,26.48
2022-11-29T23:32:55.513Z,27.15
2022-11-29T23:42:57.427Z,25.88
2022-11-29T23:53:00.761Z,28.30
